Terminal Aerodrome Forecast
Issued by NWS

Home | Current Version | Previous Version | Text Only | Print | Product List | Glossary Off
Versions: 1 2 3 4 5 6 7 8 9 10 11 12 13 14 15 16 17

000
FTUS43 KGRB 231700
TAFATW
TAF
KATW 231732Z 2318/2418 03011G18KT P6SM SCT045
      TEMPO 2320/2322 BKN045
     FM232300 05007KT P6SM SCT050
     FM240600 VRB03KT P6SM SKC
      TEMPO 2408/2411 2SM BR
     FM241300 21004KT P6SM SKC=

USA.gov is the U.S. government's official web portal to all federal, state and local government web resources and services.